createdAt,value
2022-08-25T00:02:21.095Z,2.35
2022-08-25T00:04:53.889Z,2.80
2022-08-25T00:07:21.816Z,2.90
2022-08-25T00:09:52.287Z,2.80
2022-08-25T00:12:20.231Z,2.80
2022-08-25T00:14:49.428Z,2.63
2022-08-25T00:17:17.598Z,2.60
2022-08-25T00:19:46.106Z,2.80
2022-08-25T00:22:13.937Z,3.08
2022-08-25T00:24:42.222Z,2.60
2022-08-25T00:27:12.610Z,2.70
2022-08-25T00:29:40.451Z,2.78
2022-08-25T00:32:09.660Z,2.70
2022-08-25T00:34:39.465Z,2.83
2022-08-25T00:37:09.388Z,2.78
2022-08-25T00:39:39.045Z,2.45
2022-08-25T00:42:16.180Z,2.47
2022-08-25T00:44:58.270Z,2.70
2022-08-25T00:47:29.654Z,2.63
2022-08-25T00:50:02.794Z,2.60
2022-08-25T00:52:37.298Z,2.80
2022-08-25T00:55:14.606Z,2.97
2022-08-25T00:57:49.794Z,2.80
2022-08-25T01:00:28.858Z,2.65
2022-08-25T01:02:58.667Z,2.85
2022-08-25T01:05:29.662Z,2.80
2022-08-25T01:08:02.231Z,2.80
2022-08-25T01:10:34.221Z,2.67
2022-08-25T01:13:16.414Z,2.90
2022-08-25T01:15:45.950Z,2.85
2022-08-25T01:18:15.846Z,2.60
2022-08-25T01:20:43.841Z,2.90
2022-08-25T01:23:14.642Z,3.00
2022-08-25T01:25:51.703Z,2.50
2022-08-25T01:28:21.176Z,2.72
2022-08-25T01:30:50.598Z,2.90
2022-08-25T01:33:20.038Z,2.78
2022-08-25T01:35:48.660Z,3.17
2022-08-25T01:38:19.021Z,3.03
2022-08-25T01:40:47.701Z,3.05
2022-08-25T01:43:31.452Z,2.92
2022-08-25T01:45:59.379Z,2.47
2022-08-25T01:48:27.472Z,3.63
2022-08-25T01:50:56.893Z,2.80
2022-08-25T01:53:29.945Z,2.78
2022-08-25T01:56:11.452Z,2.70
2022-08-25T01:58:43.994Z,2.92
2022-08-25T02:01:17.881Z,3.00
2022-08-25T02:03:50.210Z,3.30
2022-08-25T02:06:28.694Z,2.83
2022-08-25T02:09:05.627Z,2.75
2022-08-25T02:11:35.891Z,3.10
2022-08-25T02:14:04.806Z,3.08
2022-08-25T02:16:37.106Z,2.80
2022-08-25T02:19:09.099Z,2.78
2022-08-25T02:21:37.173Z,2.97
2022-08-25T02:24:07.847Z,2.90
2022-08-25T02:26:37.330Z,2.83
2022-08-25T02:29:07.438Z,2.70
2022-08-25T02:31:36.856Z,3.22
2022-08-25T02:34:06.453Z,2.80
2022-08-25T02:36:34.861Z,2.90
2022-08-25T02:39:04.538Z,3.40
2022-08-25T02:41:35.094Z,2.95
2022-08-25T02:44:06.961Z,3.10
2022-08-25T02:46:35.963Z,2.80
2022-08-25T02:49:04.687Z,3.20
2022-08-25T02:51:34.626Z,2.88
2022-08-25T02:54:05.130Z,2.83
2022-08-25T02:56:34.677Z,3.05
2022-08-25T02:59:03.106Z,3.20
2022-08-25T03:01:32.736Z,2.92
2022-08-25T03:04:02.106Z,3.13
2022-08-25T03:06:30.685Z,3.30
2022-08-25T03:08:58.797Z,3.40
2022-08-25T03:11:26.730Z,3.03
2022-08-25T03:13:56.476Z,3.60
2022-08-25T03:16:27.855Z,3.20
2022-08-25T03:18:56.349Z,3.50
2022-08-25T03:21:26.481Z,3.60
2022-08-25T03:23:54.625Z,3.63
2022-08-25T03:26:41.468Z,3.40
2022-08-25T03:29:11.309Z,3.45
2022-08-25T03:31:39.645Z,3.72
2022-08-25T03:34:07.894Z,3.75
2022-08-25T03:36:35.922Z,3.60
2022-08-25T03:39:04.974Z,3.50
2022-08-25T03:41:32.942Z,3.70
2022-08-25T03:44:03.958Z,3.58
2022-08-25T03:46:37.808Z,3.33
2022-08-25T03:49:09.468Z,3.30
2022-08-25T03:51:42.936Z,3.10
2022-08-25T03:54:11.617Z,3.70
2022-08-25T03:56:40.383Z,3.60
2022-08-25T03:59:09.935Z,3.25
2022-08-25T04:01:42.063Z,3.22
2022-08-25T04:04:12.599Z,3.25
2022-08-25T04:06:42.108Z,3.50
2022-08-25T04:09:11.498Z,3.70
2022-08-25T04:11:40.460Z,3.38
2022-08-25T04:14:13.041Z,3.70
2022-08-25T04:16:46.090Z,3.90
2022-08-25T04:19:14.268Z,3.70
2022-08-25T04:21:42.893Z,3.70
2022-08-25T04:24:13.097Z,4.45
2022-08-25T04:26:45.301Z,3.85
2022-08-25T04:29:18.487Z,3.85
2022-08-25T04:31:52.511Z,3.95
2022-08-25T04:34:29.876Z,4.05
2022-08-25T04:37:01.581Z,4.28
2022-08-25T04:39:30.222Z,3.88
2022-08-25T04:42:00.400Z,4.05
2022-08-25T04:44:32.931Z,3.78
2022-08-25T04:47:02.357Z,4.15
2022-08-25T04:49:33.566Z,3.95
2022-08-25T04:52:01.436Z,4.30
2022-08-25T04:54:29.514Z,4.78
2022-08-25T04:57:05.273Z,4.32
2022-08-25T04:59:33.646Z,3.35
2022-08-25T05:02:05.099Z,4.35
2022-08-25T05:04:35.235Z,4.00
2022-08-25T05:07:04.614Z,3.70
2022-08-25T05:09:33.166Z,4.10
2022-08-25T05:12:03.083Z,4.15
2022-08-25T05:14:31.548Z,3.67
2022-08-25T05:17:00.720Z,4.00
2022-08-25T05:19:30.158Z,4.03
2022-08-25T05:21:58.316Z,4.03
2022-08-25T05:24:26.869Z,3.90
2022-08-25T05:26:54.916Z,4.13
2022-08-25T05:29:23.934Z,4.00
2022-08-25T05:31:52.028Z,4.45
2022-08-25T05:34:20.526Z,4.10
2022-08-25T05:36:49.908Z,4.03
2022-08-25T05:39:18.281Z,4.72
2022-08-25T05:41:46.175Z,4.47
2022-08-25T05:44:16.937Z,4.10
2022-08-25T05:46:49.237Z,4.63
2022-08-25T05:49:17.207Z,4.10
2022-08-25T05:51:45.257Z,4.28
2022-08-25T05:54:14.553Z,4.40
2022-08-25T05:56:42.435Z,4.72
2022-08-25T05:59:10.632Z,4.43
2022-08-25T06:01:57.196Z,4.13
2022-08-25T06:04:25.457Z,3.95
2022-08-25T06:06:54.836Z,4.05
2022-08-25T06:09:24.443Z,4.18
2022-08-25T06:11:54.989Z,4.47
2022-08-25T06:14:23.901Z,5.28
2022-08-25T06:16:52.231Z,4.10
2022-08-25T06:19:21.204Z,4.70
2022-08-25T06:21:49.770Z,4.28
2022-08-25T06:24:17.607Z,4.35
2022-08-25T06:26:46.890Z,3.95
2022-08-25T06:29:14.907Z,4.53
2022-08-25T06:31:43.689Z,4.35
2022-08-25T06:34:12.573Z,4.60
2022-08-25T06:36:40.796Z,4.63
2022-08-25T06:39:10.621Z,4.05
2022-08-25T06:41:39.138Z,4.10
2022-08-25T06:44:08.479Z,4.10
2022-08-25T06:46:37.173Z,4.25
2022-08-25T06:49:06.698Z,4.10
2022-08-25T06:51:38.010Z,4.03
2022-08-25T06:54:10.035Z,4.22
2022-08-25T06:56:40.760Z,3.92
2022-08-25T06:59:11.107Z,4.20
2022-08-25T07:01:39.902Z,4.20
2022-08-25T07:04:12.983Z,4.07
2022-08-25T07:06:41.725Z,3.88
2022-08-25T07:09:11.670Z,4.25
2022-08-25T07:11:41.601Z,4.20
2022-08-25T07:14:14.188Z,4.22
2022-08-25T07:16:48.512Z,4.10
2022-08-25T07:19:20.917Z,4.50
2022-08-25T07:21:53.090Z,4.22
2022-08-25T07:24:22.147Z,3.80
2022-08-25T07:26:51.875Z,3.83
2022-08-25T07:29:32.204Z,4.20
2022-08-25T07:32:01.571Z,4.20
2022-08-25T07:34:52.405Z,4.30
2022-08-25T07:40:14.424Z,3.97
2022-08-25T07:42:42.769Z,4.22
2022-08-25T07:45:14.209Z,4.13
2022-08-25T07:47:45.625Z,4.47
2022-08-25T07:50:14.613Z,4.07
2022-08-25T07:52:42.679Z,4.35
2022-08-25T07:55:12.332Z,4.13
2022-08-25T07:57:48.928Z,3.92
2022-08-25T08:00:27.540Z,4.68
2022-08-25T08:02:56.261Z,4.10
2022-08-25T08:05:25.895Z,4.07
2022-08-25T08:07:55.405Z,3.97
2022-08-25T08:13:18.068Z,4.47
2022-08-25T08:15:48.263Z,4.43
2022-08-25T08:18:17.010Z,3.90
2022-08-25T08:20:49.778Z,3.95
2022-08-25T08:23:18.487Z,4.47
2022-08-25T08:25:48.007Z,4.60
2022-08-25T08:28:15.894Z,4.47
2022-08-25T08:30:53.621Z,4.18
2022-08-25T08:33:26.194Z,4.07
2022-08-25T08:35:59.160Z,4.45
2022-08-25T08:38:28.947Z,4.22
2022-08-25T08:41:33.930Z,4.50
2022-08-25T08:44:26.118Z,4.35
2022-08-25T08:47:08.961Z,4.63
2022-08-25T08:49:52.366Z,5.18
2022-08-25T08:52:36.387Z,4.50
2022-08-25T08:55:20.192Z,4.28
2022-08-25T08:57:54.336Z,4.40
2022-08-25T09:00:23.453Z,4.00
2022-08-25T09:03:00.266Z,4.15
2022-08-25T09:05:46.688Z,4.78
2022-08-25T09:08:20.505Z,4.32
2022-08-25T09:11:01.211Z,4.60
2022-08-25T09:13:49.671Z,4.35
2022-08-25T09:16:48.381Z,4.57
2022-08-25T09:19:45.069Z,3.97
2022-08-25T09:22:36.867Z,4.82
2022-08-25T09:25:29.591Z,4.40
2022-08-25T09:28:20.095Z,4.13
2022-08-25T09:30:59.253Z,4.30
2022-08-25T09:33:31.518Z,4.07
2022-08-25T09:36:06.446Z,4.43
2022-08-25T09:38:38.710Z,3.63
2022-08-25T09:41:08.314Z,4.18
2022-08-25T09:43:41.672Z,4.15
2022-08-25T09:46:14.530Z,3.78
2022-08-25T09:48:56.092Z,3.70
2022-08-25T09:51:42.529Z,3.13
2022-08-25T09:54:25.587Z,3.60
2022-08-25T09:57:02.131Z,3.40
2022-08-25T09:59:35.978Z,3.38
2022-08-25T10:02:23.863Z,3.03
2022-08-25T10:04:52.997Z,3.33
2022-08-25T10:07:28.000Z,3.53
2022-08-25T10:10:01.620Z,3.30
2022-08-25T10:12:42.385Z,3.50
2022-08-25T10:15:29.768Z,2.97
2022-08-25T10:18:23.427Z,2.85
2022-08-25T10:21:09.426Z,2.90
2022-08-25T10:23:44.969Z,3.00
2022-08-25T10:26:33.033Z,2.90
2022-08-25T10:29:22.519Z,3.28
2022-08-25T10:31:59.372Z,2.95
2022-08-25T10:34:46.247Z,2.80
2022-08-25T10:37:37.868Z,2.80
2022-08-25T10:40:21.107Z,2.65
2022-08-25T10:43:07.585Z,2.88
2022-08-25T10:45:45.427Z,2.78
2022-08-25T10:49:10.823Z,2.60
2022-08-25T10:51:56.021Z,3.13
2022-08-25T10:54:42.132Z,3.20
2022-08-25T10:57:22.683Z,2.90
2022-08-25T11:00:07.943Z,3.63
2022-08-25T11:03:20.806Z,3.10
2022-08-25T11:05:58.720Z,3.25
2022-08-25T11:08:37.680Z,3.42
2022-08-25T11:11:13.628Z,3.42
2022-08-25T11:13:50.486Z,2.92
2022-08-25T11:16:33.959Z,3.38
2022-08-25T11:19:14.356Z,2.95
2022-08-25T11:21:52.812Z,3.40
2022-08-25T11:24:46.998Z,3.30
2022-08-25T11:27:24.376Z,3.10
2022-08-25T11:30:06.074Z,3.10
2022-08-25T11:32:39.192Z,3.13
2022-08-25T11:35:13.346Z,2.95
2022-08-25T11:38:00.219Z,2.63
2022-08-25T11:40:55.586Z,3.15
2022-08-25T11:43:49.005Z,2.85
2022-08-25T11:46:39.590Z,2.90
2022-08-25T11:49:49.001Z,3.00
2022-08-25T11:52:53.903Z,3.30
2022-08-25T11:58:32.790Z,3.03
2022-08-25T12:01:03.690Z,3.28
2022-08-25T12:04:12.367Z,3.53
2022-08-25T12:07:23.859Z,3.00
2022-08-25T12:10:20.918Z,3.20
2022-08-25T12:13:04.958Z,2.90
2022-08-25T12:16:00.804Z,3.10
2022-08-25T12:18:45.794Z,3.10
2022-08-25T12:21:31.855Z,3.47
2022-08-25T12:24:47.985Z,3.30
2022-08-25T12:27:33.894Z,3.10
2022-08-25T12:30:20.830Z,3.05
2022-08-25T12:33:11.957Z,3.22
2022-08-25T12:35:56.912Z,3.45
2022-08-25T12:38:35.012Z,3.10
2022-08-25T12:41:13.206Z,3.30
2022-08-25T12:43:45.290Z,3.30
2022-08-25T12:46:39.569Z,3.28
2022-08-25T12:49:33.089Z,3.47
2022-08-25T12:52:07.003Z,3.38
2022-08-25T12:54:48.858Z,3.70
2022-08-25T12:57:43.195Z,3.45
2022-08-25T13:00:21.237Z,3.55
2022-08-25T13:03:22.102Z,3.38
2022-08-25T13:06:32.776Z,3.90
2022-08-25T13:10:04.446Z,3.85
2022-08-25T13:12:44.873Z,3.58
2022-08-25T13:15:15.511Z,3.78
2022-08-25T13:17:43.766Z,3.90
2022-08-25T13:20:19.871Z,3.55
2022-08-25T13:22:57.215Z,4.20
2022-08-25T13:25:32.138Z,3.70
2022-08-25T13:28:05.790Z,4.03
2022-08-25T13:30:37.007Z,3.75
2022-08-25T13:33:20.216Z,3.80
2022-08-25T13:36:11.932Z,4.10
2022-08-25T13:38:41.148Z,4.25
2022-08-25T13:41:20.543Z,4.30
2022-08-25T13:43:51.612Z,3.67
2022-08-25T13:46:23.060Z,3.75
2022-08-25T13:49:02.592Z,4.03
2022-08-25T13:51:32.078Z,3.90
2022-08-25T13:54:06.082Z,3.78
2022-08-25T13:56:41.096Z,3.83
2022-08-25T13:59:26.111Z,3.88
2022-08-25T14:01:56.142Z,4.13
2022-08-25T14:04:32.808Z,4.15
2022-08-25T14:07:27.190Z,4.28
2022-08-25T14:10:09.837Z,3.95
2022-08-25T14:12:44.931Z,3.85
2022-08-25T14:18:05.899Z,4.05
2022-08-25T14:20:37.168Z,3.65
2022-08-25T14:23:10.153Z,3.40
2022-08-25T14:25:40.785Z,3.63
2022-08-25T14:28:15.119Z,3.65
2022-08-25T14:30:51.795Z,3.47
2022-08-25T14:33:24.615Z,4.15
2022-08-25T14:35:55.036Z,5.22
2022-08-25T14:38:24.354Z,3.65
2022-08-25T14:40:53.834Z,5.72
2022-08-25T14:43:24.055Z,9.05
2022-08-25T14:46:09.904Z,5.15
2022-08-25T14:48:46.701Z,19.10
2022-08-25T14:51:17.149Z,8.75
2022-08-25T14:53:48.338Z,5.78
2022-08-25T14:56:16.738Z,5.22
2022-08-25T14:58:48.253Z,10.48
2022-08-25T15:01:29.046Z,14.27
2022-08-25T15:04:04.901Z,7.57
2022-08-25T15:06:35.627Z,6.43
2022-08-25T15:09:13.599Z,4.47
2022-08-25T15:11:47.232Z,5.63
2022-08-25T15:14:28.570Z,5.03
2022-08-25T15:16:58.703Z,4.70
2022-08-25T15:19:27.506Z,4.20
2022-08-25T15:21:59.337Z,6.13
2022-08-25T15:24:28.708Z,9.13
2022-08-25T15:26:59.800Z,7.32
2022-08-25T15:29:31.493Z,7.28
2022-08-25T15:32:05.858Z,5.90
2022-08-25T15:34:35.434Z,4.20
2022-08-25T15:37:10.082Z,4.32
2022-08-25T15:39:40.406Z,4.10
2022-08-25T15:42:12.115Z,4.07
2022-08-25T15:44:40.612Z,4.15
2022-08-25T15:47:12.618Z,7.88
2022-08-25T15:49:41.056Z,4.07
2022-08-25T15:52:10.030Z,4.47
2022-08-25T15:54:38.038Z,4.25
2022-08-25T15:57:08.776Z,4.25
2022-08-25T15:59:40.993Z,4.40
2022-08-25T16:02:15.291Z,4.43
2022-08-25T16:04:43.711Z,4.15
2022-08-25T16:07:13.227Z,4.68
2022-08-25T16:09:41.861Z,4.63
2022-08-25T16:12:12.931Z,4.55
2022-08-25T16:14:41.181Z,4.38
2022-08-25T16:17:10.561Z,4.57
2022-08-25T16:19:38.551Z,4.45
2022-08-25T16:22:09.003Z,4.45
2022-08-25T16:24:40.355Z,5.00
2022-08-25T16:27:12.014Z,4.75
2022-08-25T16:29:43.017Z,4.35
2022-08-25T16:32:14.618Z,4.85
2022-08-25T16:34:44.434Z,4.60
2022-08-25T16:37:13.543Z,5.72
2022-08-25T16:39:45.540Z,4.40
2022-08-25T16:42:14.375Z,4.28
2022-08-25T16:44:42.386Z,4.57
2022-08-25T16:47:14.271Z,4.65
2022-08-25T16:49:47.857Z,5.22
2022-08-25T16:52:34.536Z,5.20
2022-08-25T16:55:16.137Z,6.13
2022-08-25T16:57:47.640Z,5.68
2022-08-25T17:00:19.254Z,4.75
2022-08-25T17:02:51.991Z,4.82
2022-08-25T17:05:20.199Z,5.78
2022-08-25T17:08:08.298Z,4.95
2022-08-25T17:10:39.441Z,4.82
2022-08-25T17:13:07.644Z,4.60
2022-08-25T17:15:43.182Z,4.38
2022-08-25T17:18:13.641Z,4.40
2022-08-25T17:20:43.311Z,4.18
2022-08-25T17:23:13.086Z,4.50
2022-08-25T17:25:42.976Z,4.93
2022-08-25T17:28:12.835Z,5.72
2022-08-25T17:30:41.956Z,4.55
2022-08-25T17:33:10.060Z,4.10
2022-08-25T17:35:42.861Z,4.47
2022-08-25T17:38:13.152Z,4.40
2022-08-25T17:40:41.835Z,4.40
2022-08-25T17:43:10.036Z,4.63
2022-08-25T17:45:39.511Z,4.60
2022-08-25T17:48:08.645Z,4.68
2022-08-25T17:50:37.402Z,4.57
2022-08-25T17:53:09.801Z,4.50
2022-08-25T17:55:43.087Z,4.78
2022-08-25T17:58:17.853Z,5.13
2022-08-25T18:00:47.082Z,5.03
2022-08-25T18:03:16.153Z,10.07
2022-08-25T18:05:45.148Z,5.03
2022-08-25T18:08:16.037Z,5.32
2022-08-25T18:10:46.032Z,5.63
2022-08-25T18:13:14.441Z,4.70
2022-08-25T18:15:43.537Z,5.05
2022-08-25T18:18:13.227Z,4.60
2022-08-25T18:20:45.972Z,4.68
2022-08-25T18:23:16.657Z,4.68
2022-08-25T18:25:47.587Z,9.48
2022-08-25T18:28:15.853Z,7.68
2022-08-25T18:30:44.093Z,5.53
2022-08-25T18:33:12.487Z,5.13
2022-08-25T18:35:40.406Z,5.30
2022-08-25T18:38:28.095Z,5.38
2022-08-25T18:40:59.822Z,5.10
2022-08-25T18:43:31.258Z,43.47
2022-08-25T18:46:06.830Z,26.27
2022-08-25T18:48:36.258Z,6.45
2022-08-25T18:51:06.259Z,5.90
2022-08-25T18:53:37.288Z,5.85
2022-08-25T18:56:20.143Z,5.60
2022-08-25T18:58:48.480Z,5.70
2022-08-25T19:01:19.276Z,5.50
2022-08-25T19:03:48.406Z,5.22
2022-08-25T19:06:16.482Z,5.55
2022-08-25T19:08:45.194Z,4.85
2022-08-25T19:11:13.518Z,5.28
2022-08-25T19:13:43.482Z,4.95
2022-08-25T19:16:17.778Z,5.20
2022-08-25T19:18:52.258Z,5.10
2022-08-25T19:21:23.619Z,4.90
2022-08-25T19:23:51.588Z,6.00
2022-08-25T19:26:21.028Z,5.72
2022-08-25T19:28:50.877Z,5.05
2022-08-25T19:31:23.685Z,5.40
2022-08-25T19:33:55.333Z,5.22
2022-08-25T19:36:28.326Z,5.38
2022-08-25T19:39:00.112Z,5.65
2022-08-25T19:41:31.215Z,5.85
2022-08-25T19:44:02.737Z,27.92
2022-08-25T19:46:36.089Z,11.82
2022-08-25T19:49:12.381Z,9.50
2022-08-25T19:51:44.645Z,5.55
2022-08-25T19:54:14.549Z,8.95
2022-08-25T19:56:54.568Z,24.90
2022-08-25T19:59:34.236Z,11.70
2022-08-25T20:02:15.544Z,5.82
2022-08-25T20:04:49.600Z,25.55
2022-08-25T20:07:21.217Z,30.60
2022-08-25T20:09:49.565Z,24.95
2022-08-25T20:12:20.140Z,10.25
2022-08-25T20:14:51.650Z,7.30
2022-08-25T20:17:23.782Z,6.40
2022-08-25T20:19:54.232Z,5.80
2022-08-25T20:22:26.118Z,6.30
2022-08-25T20:24:59.166Z,6.32
2022-08-25T20:27:33.730Z,5.78
2022-08-25T20:30:08.473Z,5.32
2022-08-25T20:35:13.415Z,6.15
2022-08-25T20:37:43.981Z,5.38
2022-08-25T20:40:16.521Z,5.97
2022-08-25T20:42:45.333Z,5.70
2022-08-25T20:45:21.800Z,5.28
2022-08-25T20:47:51.283Z,5.40
2022-08-25T20:50:19.690Z,5.70
2022-08-25T20:52:48.599Z,5.63
2022-08-25T20:55:18.894Z,5.60
2022-08-25T20:57:47.809Z,5.85
2022-08-25T21:00:19.593Z,5.85
2022-08-25T21:02:53.398Z,5.53
2022-08-25T21:05:21.540Z,5.97
2022-08-25T21:07:50.729Z,6.15
2022-08-25T21:10:20.737Z,6.50
2022-08-25T21:12:49.416Z,6.18
2022-08-25T21:15:22.693Z,6.18
2022-08-25T21:17:51.142Z,6.03
2022-08-25T21:20:20.663Z,5.72
2022-08-25T21:22:49.943Z,5.93
2022-08-25T21:25:19.230Z,5.35
2022-08-25T21:27:47.946Z,6.10
2022-08-25T21:30:18.360Z,5.72
2022-08-25T21:32:53.168Z,5.90
2022-08-25T21:35:23.038Z,6.00
2022-08-25T21:37:53.279Z,6.00
2022-08-25T21:40:23.152Z,5.75
2022-08-25T21:42:52.189Z,6.38
2022-08-25T21:45:21.866Z,5.82
2022-08-25T21:47:53.474Z,6.20
2022-08-25T21:50:22.166Z,6.03
2022-08-25T21:52:54.563Z,6.13
2022-08-25T21:55:23.094Z,6.10
2022-08-25T21:57:53.449Z,6.55
2022-08-25T22:00:22.626Z,6.30
2022-08-25T22:02:52.883Z,6.50
2022-08-25T22:05:21.202Z,7.28
2022-08-25T22:07:50.285Z,6.55
2022-08-25T22:10:20.698Z,6.75
2022-08-25T22:12:49.253Z,6.35
2022-08-25T22:15:19.024Z,6.75
2022-08-25T22:17:48.223Z,7.13
2022-08-25T22:20:19.555Z,7.47
2022-08-25T22:22:48.363Z,6.63
2022-08-25T22:25:16.367Z,7.40
2022-08-25T22:27:44.283Z,6.70
2022-08-25T22:30:13.686Z,6.90
2022-08-25T22:32:42.049Z,6.63
2022-08-25T22:35:14.166Z,7.22
2022-08-25T22:37:44.690Z,7.75
2022-08-25T22:40:13.845Z,7.30
2022-08-25T22:42:46.066Z,7.20
2022-08-25T22:45:17.476Z,7.00
2022-08-25T22:47:47.051Z,7.22
2022-08-25T22:50:17.309Z,6.93
2022-08-25T22:52:48.130Z,7.28
2022-08-25T22:55:17.746Z,7.20
2022-08-25T22:57:50.080Z,6.57
2022-08-25T23:00:22.872Z,6.80
2022-08-25T23:02:53.183Z,7.72
2022-08-25T23:05:21.541Z,7.60
2022-08-25T23:07:51.877Z,7.03
2022-08-25T23:10:20.785Z,7.13
2022-08-25T23:12:48.723Z,7.90
2022-08-25T23:15:16.752Z,7.13
2022-08-25T23:17:45.810Z,7.50
2022-08-25T23:20:32.475Z,6.97
2022-08-25T23:23:02.728Z,7.72
2022-08-25T23:25:32.116Z,7.55
2022-08-25T23:28:03.662Z,7.57
2022-08-25T23:30:31.820Z,7.93
2022-08-25T23:33:02.635Z,8.05
2022-08-25T23:35:30.806Z,7.75
2022-08-25T23:38:01.734Z,8.00
2022-08-25T23:40:29.984Z,7.75
2022-08-25T23:43:02.074Z,7.70
2022-08-25T23:45:30.150Z,7.68
2022-08-25T23:47:58.128Z,8.30
2022-08-25T23:50:26.313Z,8.38
2022-08-25T23:52:54.289Z,7.57
2022-08-25T23:55:23.697Z,7.65
2022-08-25T23:57:52.790Z,8.20
